createdAt,value
2018-05-01T00:00:34.538Z,15.70
2018-05-01T00:01:35.612Z,15.60
2018-05-01T00:02:36.693Z,15.60
2018-05-01T00:03:37.782Z,15.60
2018-05-01T00:04:38.858Z,15.60
2018-05-01T00:05:39.923Z,15.60
2018-05-01T00:06:41.003Z,15.60
2018-05-01T00:07:42.067Z,15.60
2018-05-01T00:08:43.139Z,15.60
2018-05-01T00:09:44.942Z,15.50
2018-05-01T00:10:45.999Z,15.50
2018-05-01T00:11:47.091Z,15.50
2018-05-01T00:12:48.158Z,15.50
2018-05-01T00:13:49.253Z,15.50
2018-05-01T00:14:50.327Z,15.40
2018-05-01T00:15:51.419Z,15.40
2018-05-01T00:16:52.482Z,15.40
2018-05-01T00:17:53.544Z,15.40
2018-05-01T00:18:54.603Z,15.40
2018-05-01T00:19:55.667Z,15.30
2018-05-01T00:20:56.738Z,15.30
2018-05-01T00:21:57.818Z,15.30
2018-05-01T00:22:58.879Z,15.40
2018-05-01T00:23:59.951Z,15.40
2018-05-01T00:25:01.769Z,15.40
2018-05-01T00:26:02.849Z,15.40
2018-05-01T00:27:03.926Z,15.40
2018-05-01T00:28:04.998Z,15.40
2018-05-01T00:29:06.802Z,15.50
2018-05-01T00:30:07.876Z,15.40
2018-05-01T00:31:08.940Z,15.30
2018-05-01T00:32:10.018Z,15.30
2018-05-01T00:33:11.104Z,15.40
2018-05-01T00:34:12.175Z,15.40
2018-05-01T00:35:13.258Z,15.40
2018-05-01T00:36:14.330Z,15.30
2018-05-01T00:37:15.407Z,15.30
2018-05-01T00:38:17.282Z,15.30
2018-05-01T00:39:18.287Z,15.30
2018-05-01T00:40:19.346Z,15.40
2018-05-01T00:41:20.431Z,15.30
2018-05-01T00:42:22.246Z,15.30
2018-05-01T00:43:23.324Z,15.20
2018-05-01T00:44:24.378Z,15.20
2018-05-01T00:45:25.447Z,15.20
2018-05-01T00:46:26.503Z,15.20
2018-05-01T00:47:27.555Z,15.20
2018-05-01T00:48:29.371Z,15.20
2018-05-01T00:49:30.429Z,15.20
2018-05-01T00:50:31.488Z,15.20
2018-05-01T00:51:32.617Z,15.10
2018-05-01T00:52:43.739Z,15.20
2018-05-01T00:53:44.807Z,15.10
2018-05-01T00:54:46.639Z,15.00
2018-05-01T00:55:47.711Z,15.00
2018-05-01T00:56:48.771Z,15.00
2018-05-01T00:57:49.851Z,15.00
2018-05-01T00:58:50.938Z,15.00
2018-05-01T00:59:52.018Z,15.00
2018-05-01T01:00:53.098Z,15.10
2018-05-01T01:01:54.158Z,15.00
2018-05-01T01:02:55.211Z,14.90
2018-05-01T01:03:57.013Z,15.00
2018-05-01T01:04:58.081Z,14.90
2018-05-01T01:05:59.895Z,14.90
2018-05-01T01:07:00.971Z,14.90
2018-05-01T01:08:02.059Z,14.90
2018-05-01T01:09:03.158Z,14.90
2018-05-01T01:10:04.236Z,14.90
2018-05-01T01:11:05.306Z,14.90
2018-05-01T01:12:07.098Z,14.80
2018-05-01T01:13:08.168Z,14.80
2018-05-01T01:14:09.288Z,14.80
2018-05-01T01:15:10.319Z,14.80
2018-05-01T01:16:11.375Z,14.70
2018-05-01T01:17:12.439Z,14.80
2018-05-01T01:18:13.495Z,14.80
2018-05-01T01:19:14.575Z,14.80
2018-05-01T01:20:15.659Z,14.80
2018-05-01T01:21:16.730Z,14.70
2018-05-01T01:22:18.531Z,14.80
2018-05-01T01:23:19.630Z,14.80
2018-05-01T01:24:20.694Z,14.80
2018-05-01T01:25:21.773Z,14.70
2018-05-01T01:26:22.855Z,14.80
2018-05-01T01:27:24.658Z,14.70
2018-05-01T01:28:26.475Z,14.70
2018-05-01T01:29:27.550Z,14.70
2018-05-01T01:30:29.362Z,14.60
2018-05-01T01:31:30.431Z,14.60
2018-05-01T01:32:31.501Z,14.60
2018-05-01T01:33:32.587Z,14.60
2018-05-01T01:34:33.670Z,14.60
2018-05-01T01:35:34.611Z,14.60
2018-05-01T01:36:35.546Z,14.60
2018-05-01T01:37:36.479Z,14.50
2018-05-01T01:38:37.410Z,14.70
2018-05-01T01:39:38.361Z,14.60
2018-05-01T01:40:39.286Z,14.60
2018-05-01T01:41:40.208Z,14.60
2018-05-01T01:42:41.889Z,14.70
2018-05-01T01:43:42.854Z,14.70
2018-05-01T01:44:43.800Z,14.70
2018-05-01T01:45:44.727Z,14.70
2018-05-01T01:46:45.673Z,14.80
2018-05-01T01:47:46.595Z,14.80
2018-05-01T01:48:48.294Z,14.80
2018-05-01T01:49:49.241Z,14.80
2018-05-01T01:50:50.170Z,14.80
2018-05-01T01:51:51.114Z,14.80
2018-05-01T01:52:52.054Z,14.80
2018-05-01T01:53:52.983Z,14.90
2018-05-01T01:54:53.910Z,14.90
2018-05-01T01:55:54.828Z,14.80
2018-05-01T01:56:55.766Z,14.80
2018-05-01T01:57:56.686Z,14.80
2018-05-01T01:58:57.631Z,14.80
2018-05-01T01:59:59.307Z,14.70
2018-05-01T02:01:00.240Z,14.70
2018-05-01T02:02:01.168Z,14.80
2018-05-01T02:03:02.092Z,14.70
2018-05-01T02:04:03.042Z,14.70
2018-05-01T02:05:03.971Z,14.70
2018-05-01T02:06:04.926Z,14.70
2018-05-01T02:07:05.854Z,14.70
2018-05-01T02:08:06.796Z,14.70
2018-05-01T02:09:07.759Z,14.80
2018-05-01T02:10:09.453Z,14.60
2018-05-01T02:11:10.387Z,14.60
2018-05-01T02:12:11.326Z,14.60
2018-05-01T02:13:12.260Z,14.60
2018-05-01T02:14:13.213Z,14.60
2018-05-01T02:15:14.892Z,14.70
2018-05-01T02:16:15.832Z,14.60
2018-05-01T02:17:16.779Z,14.70
2018-05-01T02:18:17.706Z,14.60
2018-05-01T02:19:18.644Z,14.60
2018-05-01T02:20:19.622Z,14.50
2018-05-01T02:21:21.255Z,14.40
2018-05-01T02:22:22.199Z,14.50
2018-05-01T02:23:23.160Z,14.40
2018-05-01T02:24:24.107Z,14.40
2018-05-01T02:25:25.034Z,14.40
2018-05-01T02:26:25.962Z,14.40
2018-05-01T02:27:26.895Z,14.30
2018-05-01T02:28:27.830Z,14.40
2018-05-01T02:29:28.758Z,14.30
2018-05-01T02:30:29.687Z,14.40
2018-05-01T02:31:30.621Z,14.40
2018-05-01T02:32:31.539Z,14.50
2018-05-01T02:33:32.468Z,14.40
2018-05-01T02:34:33.403Z,14.40
2018-05-01T02:35:34.330Z,14.40
2018-05-01T02:36:35.254Z,14.40
2018-05-01T02:37:36.178Z,14.40
2018-05-01T02:38:37.159Z,14.40
2018-05-01T02:39:38.140Z,14.30
2018-05-01T02:40:39.060Z,14.40
2018-05-01T02:41:39.990Z,14.40
2018-05-01T02:42:40.915Z,14.40
2018-05-01T02:43:41.833Z,14.50
2018-05-01T02:44:42.760Z,14.40
2018-05-01T02:45:43.683Z,14.30
2018-05-01T02:46:44.615Z,14.30
2018-05-01T02:47:45.547Z,14.40
2018-05-01T02:48:46.463Z,14.10
2018-05-01T02:49:47.403Z,14.10
2018-05-01T02:50:48.345Z,14.10
2018-05-01T02:51:49.305Z,14.10
2018-05-01T02:52:50.194Z,14.10
2018-05-01T02:53:51.123Z,14.10
2018-05-01T02:54:52.055Z,14.20
2018-05-01T02:55:52.975Z,14.20
2018-05-01T02:56:53.890Z,14.10
2018-05-01T02:57:54.818Z,14.00
2018-05-01T02:58:55.807Z,14.00
2018-05-01T02:59:56.736Z,13.90
2018-05-01T03:00:58.402Z,13.70
2018-05-01T03:01:59.331Z,13.60
2018-05-01T03:03:00.250Z,13.60
2018-05-01T03:04:01.184Z,13.70
2018-05-01T03:05:02.119Z,13.60
2018-05-01T03:06:03.053Z,13.60
2018-05-01T03:07:03.974Z,13.60
2018-05-01T03:08:04.911Z,13.60
2018-05-01T03:09:05.865Z,13.60
2018-05-01T03:10:06.820Z,13.60
2018-05-01T03:11:07.773Z,13.60
2018-05-01T03:12:08.695Z,13.60
2018-05-01T03:13:09.632Z,13.70
2018-05-01T03:14:11.301Z,13.70
2018-05-01T03:15:12.247Z,13.70
2018-05-01T03:16:13.202Z,13.90
2018-05-01T03:17:14.123Z,13.70
2018-05-01T03:18:15.055Z,13.80
2018-05-01T03:19:15.982Z,13.80
2018-05-01T03:20:16.912Z,13.90
2018-05-01T03:21:17.822Z,13.90
2018-05-01T03:22:18.741Z,13.70
2018-05-01T03:23:19.671Z,13.60
2018-05-01T03:24:20.606Z,13.60
2018-05-01T03:25:21.536Z,13.60
2018-05-01T03:26:22.475Z,13.50
2018-05-01T03:27:23.403Z,13.40
2018-05-01T03:28:24.338Z,13.50
2018-05-01T03:29:25.276Z,13.50
2018-05-01T03:30:26.216Z,13.50
2018-05-01T03:31:27.145Z,13.60
2018-05-01T03:32:28.087Z,13.60
2018-05-01T03:33:29.004Z,13.60
2018-05-01T03:34:29.944Z,13.60
2018-05-01T03:35:31.643Z,13.70
2018-05-01T03:36:32.564Z,13.70
2018-05-01T03:37:33.474Z,13.70
2018-05-01T03:38:34.408Z,13.60
2018-05-01T03:39:35.355Z,13.60
2018-05-01T03:40:36.279Z,13.70
2018-05-01T03:41:37.206Z,13.70
2018-05-01T03:42:38.127Z,13.60
2018-05-01T03:43:39.066Z,13.60
2018-05-01T03:44:39.999Z,13.70
2018-05-01T03:45:40.908Z,13.80
2018-05-01T03:46:41.839Z,13.60
2018-05-01T03:47:42.781Z,13.70
2018-05-01T03:48:43.723Z,13.60
2018-05-01T03:49:44.652Z,13.60
2018-05-01T03:50:45.578Z,13.60
2018-05-01T03:51:46.543Z,13.60
2018-05-01T03:52:47.471Z,13.60
2018-05-01T03:53:48.383Z,13.50
2018-05-01T03:54:49.314Z,13.50
2018-05-01T03:55:50.313Z,13.40
2018-05-01T03:56:51.182Z,13.40
2018-05-01T03:57:52.111Z,13.40
2018-05-01T03:58:53.040Z,13.40
2018-05-01T03:59:53.937Z,13.30
2018-05-01T04:00:54.854Z,13.20
2018-05-01T04:01:55.759Z,13.10
2018-05-01T04:02:56.650Z,13.10
2018-05-01T04:03:57.550Z,13.10
2018-05-01T04:04:58.443Z,13.00
2018-05-01T04:05:59.373Z,13.00
2018-05-01T04:07:00.323Z,12.90
2018-05-01T04:08:01.251Z,12.90
2018-05-01T04:09:02.240Z,12.90
2018-05-01T04:10:03.191Z,12.90
2018-05-01T04:11:04.114Z,12.90
2018-05-01T04:12:05.047Z,12.90
2018-05-01T04:13:05.979Z,12.90
2018-05-01T04:14:06.909Z,12.90
2018-05-01T04:15:07.842Z,12.90
2018-05-01T04:16:08.752Z,12.90
2018-05-01T04:17:09.678Z,12.90
2018-05-01T04:18:10.688Z,12.90
2018-05-01T04:19:11.549Z,12.80
2018-05-01T04:20:12.477Z,12.90
2018-05-01T04:21:14.142Z,13.00
2018-05-01T04:22:15.824Z,13.00
2018-05-01T04:23:16.750Z,13.00
2018-05-01T04:24:17.682Z,13.00
2018-05-01T04:25:18.702Z,13.00
2018-05-01T04:26:19.569Z,13.00
2018-05-01T04:27:21.225Z,13.00
2018-05-01T04:28:22.138Z,13.00
2018-05-01T04:29:23.804Z,13.00
2018-05-01T04:30:24.722Z,13.00
2018-05-01T04:31:25.658Z,13.00
2018-05-01T04:32:26.591Z,13.00
2018-05-01T04:33:27.531Z,13.10
2018-05-01T04:34:28.458Z,13.10
2018-05-01T04:35:29.415Z,13.10
2018-05-01T04:36:30.354Z,13.10
2018-05-01T04:37:31.278Z,13.10
2018-05-01T04:38:32.210Z,13.00
2018-05-01T04:39:33.175Z,13.00
2018-05-01T04:40:34.872Z,13.00
2018-05-01T04:41:35.814Z,13.00
2018-05-01T04:42:36.766Z,13.00
2018-05-01T04:43:38.438Z,13.00
2018-05-01T04:44:39.355Z,13.00
2018-05-01T04:45:41.014Z,13.00
2018-05-01T04:46:42.707Z,12.90
2018-05-01T04:47:43.630Z,12.90
2018-05-01T04:48:44.550Z,12.90
2018-05-01T04:49:45.490Z,12.90
2018-05-01T04:50:46.419Z,12.90
2018-05-01T04:51:47.375Z,12.90
2018-05-01T04:52:48.274Z,13.00
2018-05-01T04:53:49.195Z,12.90
2018-05-01T04:54:50.113Z,12.90
2018-05-01T04:55:51.056Z,12.80
2018-05-01T04:56:51.983Z,12.80
2018-05-01T04:57:52.921Z,12.80
2018-05-01T04:58:53.848Z,12.90
2018-05-01T04:59:54.766Z,12.70
2018-05-01T05:00:56.430Z,12.60
2018-05-01T05:01:57.355Z,12.60
2018-05-01T05:02:58.298Z,12.50
2018-05-01T05:03:59.245Z,12.50
2018-05-01T05:05:00.164Z,12.50
2018-05-01T05:06:01.096Z,12.60
2018-05-01T05:07:02.015Z,12.60
2018-05-01T05:08:02.933Z,12.60
2018-05-01T05:09:03.857Z,12.60
2018-05-01T05:10:04.770Z,12.60
2018-05-01T05:11:05.706Z,12.50
2018-05-01T05:12:06.647Z,12.50
2018-05-01T05:13:07.596Z,12.40
2018-05-01T05:14:08.523Z,12.40
2018-05-01T05:15:09.438Z,12.30
2018-05-01T05:16:10.374Z,12.30
2018-05-01T05:17:11.313Z,12.30
2018-05-01T05:18:12.222Z,12.20
2018-05-01T05:19:13.567Z,12.10
2018-05-01T05:20:14.508Z,12.10
2018-05-01T05:21:15.430Z,12.10
2018-05-01T05:22:16.346Z,12.00
2018-05-01T05:23:17.277Z,12.00
2018-05-01T05:24:18.204Z,12.10
2018-05-01T05:25:19.883Z,12.00
2018-05-01T05:26:20.834Z,12.00
2018-05-01T05:27:21.766Z,12.00
2018-05-01T05:28:22.693Z,12.00
2018-05-01T05:29:23.620Z,12.00
2018-05-01T05:30:24.548Z,12.00
2018-05-01T05:31:25.476Z,11.90
2018-05-01T05:32:26.414Z,11.90
2018-05-01T05:33:27.334Z,11.80
2018-05-01T05:34:28.272Z,11.70
2018-05-01T05:35:29.190Z,11.80
2018-05-01T05:36:30.114Z,11.60
2018-05-01T05:37:31.045Z,11.70
2018-05-01T05:38:31.975Z,11.70
2018-05-01T05:39:32.898Z,11.80
2018-05-01T05:40:33.817Z,11.80
2018-05-01T05:41:34.754Z,11.80
2018-05-01T05:42:35.683Z,11.80
2018-05-01T05:43:36.615Z,11.80
2018-05-01T05:44:37.526Z,11.80
2018-05-01T05:45:38.487Z,11.90
2018-05-01T05:46:39.419Z,11.90
2018-05-01T05:47:40.348Z,11.90
2018-05-01T05:48:41.275Z,11.90
2018-05-01T05:49:42.202Z,12.00
2018-05-01T05:50:43.144Z,12.00
2018-05-01T05:51:44.071Z,12.10
2018-05-01T05:52:44.987Z,12.10
2018-05-01T05:53:45.914Z,12.10
2018-05-01T05:54:47.595Z,12.10
2018-05-01T05:55:48.520Z,12.00
2018-05-01T05:56:49.448Z,12.00
2018-05-01T05:57:50.371Z,11.90
2018-05-01T05:58:51.412Z,11.90
2018-05-01T05:59:52.336Z,11.90
2018-05-01T06:00:53.281Z,11.90
2018-05-01T06:01:54.194Z,11.80
2018-05-01T06:02:55.107Z,11.80
2018-05-01T06:03:56.042Z,11.80
2018-05-01T06:04:57.696Z,11.80
2018-05-01T06:05:58.631Z,11.80
2018-05-01T06:06:59.562Z,11.80
2018-05-01T06:08:00.496Z,11.80
2018-05-01T06:09:01.406Z,11.70
2018-05-01T06:10:02.345Z,11.70
2018-05-01T06:11:03.302Z,11.80
2018-05-01T06:12:04.963Z,11.90
2018-05-01T06:13:06.616Z,11.90
2018-05-01T06:14:07.557Z,11.90
2018-05-01T06:15:08.480Z,11.90
2018-05-01T06:16:09.415Z,12.00
2018-05-01T06:17:10.347Z,12.10
2018-05-01T06:18:11.290Z,12.00
2018-05-01T06:19:12.949Z,11.90
2018-05-01T06:20:13.865Z,12.00
2018-05-01T06:21:14.815Z,11.80
2018-05-01T06:22:15.736Z,11.80
2018-05-01T06:23:16.672Z,11.80
2018-05-01T06:24:17.637Z,11.70
2018-05-01T06:25:19.291Z,11.60
2018-05-01T06:26:20.227Z,11.60
2018-05-01T06:27:21.669Z,11.70
2018-05-01T06:28:22.648Z,11.70
2018-05-01T06:29:23.579Z,11.80
2018-05-01T06:30:24.490Z,11.80
2018-05-01T06:31:25.447Z,11.90
2018-05-01T06:32:26.666Z,11.90
2018-05-01T06:33:27.590Z,11.90
2018-05-01T06:34:28.535Z,11.90
2018-05-01T06:35:29.796Z,11.80
2018-05-01T06:36:31.476Z,11.80
2018-05-01T06:37:33.194Z,11.70
2018-05-01T06:38:34.031Z,11.80
2018-05-01T06:39:34.947Z,11.80
2018-05-01T06:40:35.914Z,11.80
2018-05-01T06:41:36.830Z,11.70
2018-05-01T06:42:37.743Z,11.90
2018-05-01T06:43:38.663Z,12.00
2018-05-01T06:44:39.603Z,11.90
2018-05-01T06:45:40.529Z,12.00
2018-05-01T06:46:41.455Z,12.00
2018-05-01T06:47:42.372Z,12.00
2018-05-01T06:48:44.026Z,12.10
2018-05-01T06:49:44.961Z,12.10
2018-05-01T06:50:45.943Z,12.20
2018-05-01T06:51:46.824Z,12.20
2018-05-01T06:52:47.769Z,12.20
2018-05-01T06:53:48.691Z,12.20
2018-05-01T06:54:49.622Z,12.30
2018-05-01T06:55:50.562Z,12.30
2018-05-01T06:56:51.474Z,12.30
2018-05-01T06:57:52.476Z,12.40
2018-05-01T06:58:54.086Z,12.40
2018-05-01T06:59:55.023Z,12.40
2018-05-01T07:00:55.971Z,12.50
2018-05-01T07:01:56.911Z,12.50
2018-05-01T07:02:57.886Z,12.50
2018-05-01T07:03:58.846Z,12.50
2018-05-01T07:04:59.755Z,12.60
2018-05-01T07:06:00.680Z,12.60
2018-05-01T07:07:01.649Z,12.60
2018-05-01T07:08:02.613Z,12.60
2018-05-01T07:09:03.538Z,12.60
2018-05-01T07:10:04.487Z,12.50
2018-05-01T07:11:05.407Z,12.50
2018-05-01T07:12:06.334Z,12.40
2018-05-01T07:13:07.267Z,12.40
2018-05-01T07:14:08.190Z,12.40
2018-05-01T07:15:09.117Z,12.40
2018-05-01T07:16:10.043Z,12.40
2018-05-01T07:17:10.965Z,12.30
2018-05-01T07:18:11.903Z,12.30
2018-05-01T07:19:12.843Z,12.30
2018-05-01T07:20:13.775Z,12.30
2018-05-01T07:21:14.744Z,12.40
2018-05-01T07:22:15.691Z,12.40
2018-05-01T07:23:16.625Z,12.50
2018-05-01T07:24:17.566Z,12.50
2018-05-01T07:25:18.514Z,12.50
2018-05-01T07:26:19.438Z,12.60
2018-05-01T07:27:20.453Z,12.60
2018-05-01T07:28:21.309Z,12.60
2018-05-01T07:29:22.250Z,12.60
2018-05-01T07:30:23.192Z,12.70
2018-05-01T07:31:24.882Z,12.60
2018-05-01T07:32:25.819Z,12.60
2018-05-01T07:33:26.774Z,12.60
2018-05-01T07:34:27.714Z,12.50
2018-05-01T07:35:28.653Z,12.50
2018-05-01T07:36:29.574Z,12.50
2018-05-01T07:37:30.503Z,12.40
2018-05-01T07:39:44.648Z,12.40
2018-05-01T07:40:45.575Z,12.50
2018-05-01T07:41:46.553Z,12.60
2018-05-01T07:42:47.479Z,12.50
2018-05-01T07:43:48.404Z,12.50
2018-05-01T07:44:49.341Z,12.50
2018-05-01T07:45:50.266Z,12.40
2018-05-01T07:46:51.206Z,12.40
2018-05-01T07:47:52.142Z,12.40
2018-05-01T07:48:53.060Z,12.40
2018-05-01T07:49:54.009Z,12.40
2018-05-01T07:50:54.923Z,12.40
2018-05-01T07:51:55.855Z,12.40
2018-05-01T07:52:56.800Z,12.50
2018-05-01T07:53:57.750Z,12.50
2018-05-01T07:54:58.713Z,12.50
2018-05-01T07:55:59.620Z,12.60
2018-05-01T07:57:00.570Z,12.70
2018-05-01T07:58:01.515Z,12.70
2018-05-01T07:59:02.427Z,12.70
2018-05-01T08:00:03.349Z,12.70
2018-05-01T08:01:04.266Z,12.80
2018-05-01T08:02:05.954Z,12.80
2018-05-01T08:03:06.879Z,12.90
2018-05-01T08:04:07.795Z,12.90
2018-05-01T08:05:08.731Z,13.00
2018-05-01T08:06:09.647Z,12.90
2018-05-01T08:07:10.594Z,13.00
2018-05-01T08:08:11.519Z,13.10
2018-05-01T08:09:12.435Z,13.00
2018-05-01T08:10:13.371Z,13.00
2018-05-01T08:11:14.325Z,12.90
2018-05-01T08:12:15.251Z,12.90
2018-05-01T08:13:16.203Z,12.90
2018-05-01T08:14:17.143Z,12.80
2018-05-01T08:15:18.078Z,12.70
2018-05-01T08:16:19.021Z,12.70
2018-05-01T08:17:19.948Z,12.70
2018-05-01T08:18:20.873Z,12.70
2018-05-01T08:19:21.798Z,12.80
2018-05-01T08:20:22.740Z,12.80
2018-05-01T08:21:24.415Z,13.00
2018-05-01T08:22:25.354Z,13.00
2018-05-01T08:23:26.295Z,13.10
2018-05-01T08:24:27.277Z,13.20
2018-05-01T08:25:28.187Z,13.30
2018-05-01T08:26:29.082Z,13.30
2018-05-01T08:27:29.993Z,13.40
2018-05-01T08:28:30.938Z,13.60
2018-05-01T08:29:31.846Z,13.50
2018-05-01T08:30:32.860Z,13.60
2018-05-01T08:31:33.711Z,13.60
2018-05-01T08:32:34.665Z,13.60
2018-05-01T08:33:35.620Z,13.60
2018-05-01T08:34:36.558Z,13.60
2018-05-01T08:35:37.485Z,13.60
2018-05-01T08:36:39.154Z,13.60
2018-05-01T08:37:40.108Z,13.60
2018-05-01T08:38:41.046Z,13.60
2018-05-01T08:39:42.004Z,13.70
2018-05-01T08:40:42.941Z,13.70
2018-05-01T08:41:43.866Z,13.70
2018-05-01T08:42:44.808Z,13.70
2018-05-01T08:43:45.736Z,13.70
2018-05-01T08:44:47.450Z,13.60
2018-05-01T08:45:48.387Z,13.60
2018-05-01T08:46:49.327Z,13.60
2018-05-01T08:47:50.238Z,13.40
2018-05-01T08:48:51.170Z,13.60
2018-05-01T08:49:52.101Z,13.70
2018-05-01T08:50:53.031Z,13.70
2018-05-01T08:51:53.987Z,13.70
2018-05-01T08:52:54.911Z,13.80
2018-05-01T08:53:55.861Z,13.80
2018-05-01T08:54:56.815Z,13.90
2018-05-01T08:55:57.772Z,13.80
2018-05-01T08:56:58.702Z,13.80
2018-05-01T08:57:59.655Z,13.80
2018-05-01T08:59:00.578Z,13.80
2018-05-01T09:00:01.519Z,13.70
2018-05-01T09:01:02.451Z,13.70
2018-05-01T09:02:04.106Z,13.70
2018-05-01T09:03:05.039Z,13.70
2018-05-01T09:04:05.987Z,13.70
2018-05-01T09:05:06.920Z,13.80
2018-05-01T09:06:07.843Z,13.80
2018-05-01T09:07:08.770Z,13.80
2018-05-01T09:08:09.683Z,13.80
2018-05-01T09:09:10.626Z,13.80
2018-05-01T09:10:11.551Z,13.80
2018-05-01T09:11:12.465Z,13.80
2018-05-01T09:12:13.385Z,13.70
2018-05-01T09:13:15.069Z,13.70
2018-05-01T09:14:15.988Z,13.70
2018-05-01T09:15:17.670Z,13.70
2018-05-01T09:16:18.594Z,13.70
2018-05-01T09:17:19.532Z,13.70
2018-05-01T09:18:20.555Z,13.70
2018-05-01T09:19:21.382Z,13.70
2018-05-01T09:20:22.335Z,13.70
2018-05-01T09:21:23.270Z,13.90
2018-05-01T09:22:24.215Z,13.70
2018-05-01T09:23:25.894Z,13.80
2018-05-01T09:24:26.823Z,13.70
2018-05-01T09:25:27.837Z,13.70
2018-05-01T09:26:28.719Z,13.70
2018-05-01T09:27:29.661Z,13.80
2018-05-01T09:28:30.599Z,13.80
2018-05-01T09:29:31.586Z,13.80
2018-05-01T09:30:32.524Z,13.80
2018-05-01T09:31:33.466Z,13.90
2018-05-01T09:32:34.407Z,13.90
2018-05-01T09:33:36.091Z,13.90
2018-05-01T09:34:37.040Z,13.90
2018-05-01T09:35:37.983Z,13.90
2018-05-01T09:36:38.902Z,13.90
2018-05-01T09:37:39.832Z,13.80
2018-05-01T09:38:40.759Z,13.80
2018-05-01T09:39:41.691Z,13.80
2018-05-01T09:40:42.643Z,13.70
2018-05-01T09:41:43.571Z,13.90
2018-05-01T09:42:44.501Z,13.90
2018-05-01T09:43:45.435Z,14.00
2018-05-01T09:44:46.354Z,14.00
2018-05-01T09:45:47.283Z,14.10
2018-05-01T09:46:48.211Z,14.10
2018-05-01T09:47:49.151Z,14.10
2018-05-01T09:48:50.963Z,14.20
2018-05-01T09:49:51.931Z,14.20
2018-05-01T09:50:52.887Z,14.20
2018-05-01T09:51:53.814Z,14.20
2018-05-01T09:52:54.874Z,14.20
2018-05-01T09:53:55.930Z,14.20
2018-05-01T09:54:56.984Z,14.20
2018-05-01T09:55:58.791Z,14.20
2018-05-01T09:57:00.608Z,14.20
2018-05-01T09:58:01.714Z,14.20
2018-05-01T09:59:03.550Z,14.30
2018-05-01T10:00:04.647Z,14.30
2018-05-01T10:01:05.746Z,14.30
2018-05-01T10:02:06.855Z,14.30
2018-05-01T10:03:07.955Z,14.30
2018-05-01T10:04:09.047Z,14.20
2018-05-01T10:05:10.106Z,14.10
2018-05-01T10:06:11.168Z,14.10
2018-05-01T10:07:12.280Z,14.10
2018-05-01T10:08:13.355Z,14.10
2018-05-01T10:09:14.411Z,14.20
2018-05-01T10:10:15.506Z,14.20
2018-05-01T10:11:16.583Z,14.20
2018-05-01T10:12:17.665Z,14.30
2018-05-01T10:13:18.711Z,14.30
2018-05-01T10:14:19.768Z,14.30
2018-05-01T10:15:21.025Z,14.40
2018-05-01T10:16:22.099Z,14.40
2018-05-01T10:17:23.184Z,14.40
2018-05-01T10:18:24.991Z,14.40
2018-05-01T10:19:26.046Z,14.40
2018-05-01T10:20:27.847Z,14.40
2018-05-01T10:21:28.937Z,14.50
2018-05-01T10:22:30.008Z,14.40
2018-05-01T10:23:31.094Z,14.30
2018-05-01T10:24:32.142Z,14.30
2018-05-01T10:25:33.206Z,14.40
2018-05-01T10:26:34.994Z,14.50
2018-05-01T10:27:36.057Z,14.50
2018-05-01T10:28:37.187Z,14.50
2018-05-01T10:29:38.963Z,14.40
2018-05-01T10:30:40.018Z,14.40
2018-05-01T10:31:41.069Z,14.50
2018-05-01T10:32:42.133Z,14.50
2018-05-01T10:33:43.195Z,14.50
2018-05-01T10:34:44.284Z,14.50
2018-05-01T10:35:45.336Z,14.60
